sensor_id;sensor_type;location;lat;lon;timestamp;P1;durP1;ratioP1;P2;durP2;ratioP2
21266;SDS011;10791;53.108;18.326;2023-04-03T00:03:23;4.80;;;0.93;;
21266;SDS011;10791;53.108;18.326;2023-04-03T00:08:27;3.27;;;0.90;;
21266;SDS011;10791;53.108;18.326;2023-04-03T00:13:33;3.93;;;1.20;;
21266;SDS011;10791;53.108;18.326;2023-04-03T00:18:37;4.10;;;0.70;;
21266;SDS011;10791;53.108;18.326;2023-04-03T00:23:41;5.17;;;1.13;;
21266;SDS011;10791;53.108;18.326;2023-04-03T00:28:45;5.60;;;1.23;;
21266;SDS011;10791;53.108;18.326;2023-04-03T00:33:48;6.07;;;0.90;;
21266;SDS011;10791;53.108;18.326;2023-04-03T00:38:52;4.93;;;1.07;;
21266;SDS011;10791;53.108;18.326;2023-04-03T00:43:55;5.43;;;1.27;;
21266;SDS011;10791;53.108;18.326;2023-04-03T00:48:58;6.00;;;1.23;;
21266;SDS011;10791;53.108;18.326;2023-04-03T00:54:02;7.97;;;1.27;;
21266;SDS011;10791;53.108;18.326;2023-04-03T00:59:11;5.00;;;1.30;;
21266;SDS011;10791;53.108;18.326;2023-04-03T01:09:41;7.17;;;1.67;;
21266;SDS011;10791;53.108;18.326;2023-04-03T01:14:51;4.23;;;1.10;;
21266;SDS011;10791;53.108;18.326;2023-04-03T01:20:45;5.53;;;1.33;;
21266;SDS011;10791;53.108;18.326;2023-04-03T01:25:39;6.73;;;1.43;;
21266;SDS011;10791;53.108;18.326;2023-04-03T01:35:52;3.60;;;1.20;;
21266;SDS011;10791;53.108;18.326;2023-04-03T01:40:56;4.60;;;1.70;;
21266;SDS011;10791;53.108;18.326;2023-04-03T01:46:00;4.93;;;0.90;;
21266;SDS011;10791;53.108;18.326;2023-04-03T01:51:03;4.73;;;1.00;;
21266;SDS011;10791;53.108;18.326;2023-04-03T01:56:06;6.87;;;1.37;;
21266;SDS011;10791;53.108;18.326;2023-04-03T02:01:10;2.93;;;1.00;;
21266;SDS011;10791;53.108;18.326;2023-04-03T02:06:13;8.40;;;1.33;;
21266;SDS011;10791;53.108;18.326;2023-04-03T02:11:17;4.27;;;1.40;;
21266;SDS011;10791;53.108;18.326;2023-04-03T02:16:20;1.43;;;0.67;;
21266;SDS011;10791;53.108;18.326;2023-04-03T02:21:24;2.87;;;1.10;;
21266;SDS011;10791;53.108;18.326;2023-04-03T02:26:27;6.40;;;1.47;;
21266;SDS011;10791;53.108;18.326;2023-04-03T02:31:31;5.87;;;1.40;;
21266;SDS011;10791;53.108;18.326;2023-04-03T02:36:35;6.70;;;1.70;;
21266;SDS011;10791;53.108;18.326;2023-04-03T02:41:38;5.13;;;1.33;;
21266;SDS011;10791;53.108;18.326;2023-04-03T02:46:41;5.33;;;1.70;;
21266;SDS011;10791;53.108;18.326;2023-04-03T02:51:45;6.13;;;1.90;;
21266;SDS011;10791;53.108;18.326;2023-04-03T02:56:49;3.10;;;1.23;;
21266;SDS011;10791;53.108;18.326;2023-04-03T03:01:52;2.87;;;1.07;;
21266;SDS011;10791;53.108;18.326;2023-04-03T03:06:56;4.40;;;1.50;;
21266;SDS011;10791;53.108;18.326;2023-04-03T03:11:59;4.20;;;1.20;;
21266;SDS011;10791;53.108;18.326;2023-04-03T03:17:03;2.20;;;1.00;;
21266;SDS011;10791;53.108;18.326;2023-04-03T03:22:06;8.10;;;1.53;;
21266;SDS011;10791;53.108;18.326;2023-04-03T03:27:09;3.40;;;1.20;;
21266;SDS011;10791;53.108;18.326;2023-04-03T03:32:13;5.47;;;1.00;;
21266;SDS011;10791;53.108;18.326;2023-04-03T03:37:16;3.20;;;1.30;;
21266;SDS011;10791;53.108;18.326;2023-04-03T03:42:19;4.73;;;1.20;;
21266;SDS011;10791;53.108;18.326;2023-04-03T03:47:23;2.23;;;1.00;;
21266;SDS011;10791;53.108;18.326;2023-04-03T03:52:26;5.30;;;1.53;;
21266;SDS011;10791;53.108;18.326;2023-04-03T03:57:30;7.20;;;2.00;;
21266;SDS011;10791;53.108;18.326;2023-04-03T04:02:33;5.10;;;1.20;;
21266;SDS011;10791;53.108;18.326;2023-04-03T04:07:37;6.37;;;1.90;;
21266;SDS011;10791;53.108;18.326;2023-04-03T04:12:42;3.63;;;1.20;;
21266;SDS011;10791;53.108;18.326;2023-04-03T04:17:46;10.07;;;1.67;;
21266;SDS011;10791;53.108;18.326;2023-04-03T04:22:49;5.10;;;1.70;;
21266;SDS011;10791;53.108;18.326;2023-04-03T04:27:53;3.47;;;1.13;;
21266;SDS011;10791;53.108;18.326;2023-04-03T04:32:56;4.70;;;1.27;;
21266;SDS011;10791;53.108;18.326;2023-04-03T04:38:00;5.43;;;1.43;;
21266;SDS011;10791;53.108;18.326;2023-04-03T04:43:04;5.70;;;1.77;;
21266;SDS011;10791;53.108;18.326;2023-04-03T04:48:07;2.77;;;1.20;;
21266;SDS011;10791;53.108;18.326;2023-04-03T04:53:11;3.10;;;1.30;;
21266;SDS011;10791;53.108;18.326;2023-04-03T04:58:14;6.70;;;1.33;;
21266;SDS011;10791;53.108;18.326;2023-04-03T05:03:17;3.93;;;1.20;;
21266;SDS011;10791;53.108;18.326;2023-04-03T05:08:21;4.57;;;1.87;;
21266;SDS011;10791;53.108;18.326;2023-04-03T05:13:25;4.53;;;1.70;;
21266;SDS011;10791;53.108;18.326;2023-04-03T05:18:28;4.20;;;1.47;;
21266;SDS011;10791;53.108;18.326;2023-04-03T05:23:32;3.77;;;1.40;;
21266;SDS011;10791;53.108;18.326;2023-04-03T05:28:35;5.27;;;1.80;;
21266;SDS011;10791;53.108;18.326;2023-04-03T05:33:39;4.73;;;1.70;;
21266;SDS011;10791;53.108;18.326;2023-04-03T05:38:42;4.97;;;1.67;;
21266;SDS011;10791;53.108;18.326;2023-04-03T05:43:45;3.53;;;1.57;;
21266;SDS011;10791;53.108;18.326;2023-04-03T05:48:49;10.23;;;1.43;;
21266;SDS011;10791;53.108;18.326;2023-04-03T05:53:55;2.77;;;1.20;;
21266;SDS011;10791;53.108;18.326;2023-04-03T05:59:03;8.50;;;1.97;;
21266;SDS011;10791;53.108;18.326;2023-04-03T06:04:06;5.77;;;1.57;;
21266;SDS011;10791;53.108;18.326;2023-04-03T06:09:14;4.83;;;1.27;;
21266;SDS011;10791;53.108;18.326;2023-04-03T06:14:19;2.17;;;0.90;;
21266;SDS011;10791;53.108;18.326;2023-04-03T06:19:22;5.43;;;1.67;;
21266;SDS011;10791;53.108;18.326;2023-04-03T06:24:26;4.20;;;1.10;;
21266;SDS011;10791;53.108;18.326;2023-04-03T06:29:29;5.50;;;1.33;;
21266;SDS011;10791;53.108;18.326;2023-04-03T06:34:32;3.47;;;1.63;;
21266;SDS011;10791;53.108;18.326;2023-04-03T06:39:36;3.23;;;1.27;;
21266;SDS011;10791;53.108;18.326;2023-04-03T06:44:39;9.63;;;2.43;;
21266;SDS011;10791;53.108;18.326;2023-04-03T06:49:45;5.80;;;1.70;;
21266;SDS011;10791;53.108;18.326;2023-04-03T06:54:55;3.37;;;1.10;;
21266;SDS011;10791;53.108;18.326;2023-04-03T07:00:02;2.73;;;1.37;;
21266;SDS011;10791;53.108;18.326;2023-04-03T07:05:07;3.20;;;1.30;;
21266;SDS011;10791;53.108;18.326;2023-04-03T07:10:11;3.43;;;1.23;;
21266;SDS011;10791;53.108;18.326;2023-04-03T07:15:17;4.10;;;1.70;;
21266;SDS011;10791;53.108;18.326;2023-04-03T07:20:21;2.30;;;0.90;;
21266;SDS011;10791;53.108;18.326;2023-04-03T07:25:25;1.70;;;1.23;;
21266;SDS011;10791;53.108;18.326;2023-04-03T07:30:29;4.23;;;1.00;;
21266;SDS011;10791;53.108;18.326;2023-04-03T07:35:32;6.90;;;1.33;;
21266;SDS011;10791;53.108;18.326;2023-04-03T07:40:36;0.93;;;0.73;;
21266;SDS011;10791;53.108;18.326;2023-04-03T07:45:40;5.23;;;1.00;;
21266;SDS011;10791;53.108;18.326;2023-04-03T07:50:43;3.00;;;0.80;;
21266;SDS011;10791;53.108;18.326;2023-04-03T07:55:47;1.57;;;0.83;;
21266;SDS011;10791;53.108;18.326;2023-04-03T08:00:51;1.33;;;0.73;;
21266;SDS011;10791;53.108;18.326;2023-04-03T08:06:00;6.47;;;1.00;;
21266;SDS011;10791;53.108;18.326;2023-04-03T08:11:07;2.03;;;0.90;;
21266;SDS011;10791;53.108;18.326;2023-04-03T08:16:17;2.90;;;1.03;;
21266;SDS011;10791;53.108;18.326;2023-04-03T08:21:28;3.33;;;1.30;;
21266;SDS011;10791;53.108;18.326;2023-04-03T08:26:31;1.30;;;0.90;;
21266;SDS011;10791;53.108;18.326;2023-04-03T08:31:35;1.90;;;0.70;;
21266;SDS011;10791;53.108;18.326;2023-04-03T08:36:38;2.03;;;0.80;;
21266;SDS011;10791;53.108;18.326;2023-04-03T08:41:42;2.10;;;1.37;;
21266;SDS011;10791;53.108;18.326;2023-04-03T08:57:41;2.57;;;1.10;;
21266;SDS011;10791;53.108;18.326;2023-04-03T09:08:03;2.63;;;1.00;;
21266;SDS011;10791;53.108;18.326;2023-04-03T09:13:30;2.27;;;1.10;;
21266;SDS011;10791;53.108;18.326;2023-04-03T09:18:41;2.80;;;0.87;;
21266;SDS011;10791;53.108;18.326;2023-04-03T09:23:52;1.33;;;0.90;;
21266;SDS011;10791;53.108;18.326;2023-04-03T09:29:01;1.07;;;0.60;;
21266;SDS011;10791;53.108;18.326;2023-04-03T09:34:53;1.70;;;1.23;;
21266;SDS011;10791;53.108;18.326;2023-04-03T09:39:52;4.13;;;1.30;;
21266;SDS011;10791;53.108;18.326;2023-04-03T09:44:58;3.00;;;1.13;;
21266;SDS011;10791;53.108;18.326;2023-04-03T09:55:17;1.57;;;0.80;;
21266;SDS011;10791;53.108;18.326;2023-04-03T10:05:40;2.93;;;1.17;;
21266;SDS011;10791;53.108;18.326;2023-04-03T10:10:45;1.93;;;0.87;;
21266;SDS011;10791;53.108;18.326;2023-04-03T10:15:52;2.43;;;1.30;;
21266;SDS011;10791;53.108;18.326;2023-04-03T10:21:06;2.87;;;0.70;;
21266;SDS011;10791;53.108;18.326;2023-04-03T10:37:27;3.93;;;0.70;;
21266;SDS011;10791;53.108;18.326;2023-04-03T10:53:31;2.07;;;0.83;;
21266;SDS011;10791;53.108;18.326;2023-04-03T10:58:48;4.03;;;1.10;;
21266;SDS011;10791;53.108;18.326;2023-04-03T11:03:57;3.70;;;1.10;;
21266;SDS011;10791;53.108;18.326;2023-04-03T11:14:26;2.10;;;0.80;;
21266;SDS011;10791;53.108;18.326;2023-04-03T11:20:20;2.83;;;1.07;;
21266;SDS011;10791;53.108;18.326;2023-04-03T11:30:19;4.03;;;1.10;;
21266;SDS011;10791;53.108;18.326;2023-04-03T11:35:30;1.07;;;0.70;;
21266;SDS011;10791;53.108;18.326;2023-04-03T11:40:36;1.20;;;0.60;;
21266;SDS011;10791;53.108;18.326;2023-04-03T12:01:45;1.87;;;0.60;;
21266;SDS011;10791;53.108;18.326;2023-04-03T12:06:58;1.23;;;0.67;;
21266;SDS011;10791;53.108;18.326;2023-04-03T12:12:21;5.27;;;1.07;;
21266;SDS011;10791;53.108;18.326;2023-04-03T12:17:33;2.17;;;0.63;;
21266;SDS011;10791;53.108;18.326;2023-04-03T12:22:36;4.47;;;0.60;;
21266;SDS011;10791;53.108;18.326;2023-04-03T12:27:40;3.30;;;0.87;;
21266;SDS011;10791;53.108;18.326;2023-04-03T12:33:01;1.23;;;0.63;;
21266;SDS011;10791;53.108;18.326;2023-04-03T12:54:35;2.47;;;1.20;;
21266;SDS011;10791;53.108;18.326;2023-04-03T12:59:42;4.17;;;1.30;;
21266;SDS011;10791;53.108;18.326;2023-04-03T13:04:50;6.20;;;1.93;;
21266;SDS011;10791;53.108;18.326;2023-04-03T13:09:56;1.90;;;0.77;;
21266;SDS011;10791;53.108;18.326;2023-04-03T13:15:11;2.17;;;0.83;;
21266;SDS011;10791;53.108;18.326;2023-04-03T13:20:25;1.63;;;0.70;;
21266;SDS011;10791;53.108;18.326;2023-04-03T13:25:35;2.47;;;0.60;;
21266;SDS011;10791;53.108;18.326;2023-04-03T13:36:16;1.60;;;0.77;;
21266;SDS011;10791;53.108;18.326;2023-04-03T13:41:37;0.93;;;0.63;;
21266;SDS011;10791;53.108;18.326;2023-04-03T13:46:42;2.60;;;0.80;;
21266;SDS011;10791;53.108;18.326;2023-04-03T13:51:49;1.60;;;0.70;;
21266;SDS011;10791;53.108;18.326;2023-04-03T13:57:12;1.57;;;0.70;;
21266;SDS011;10791;53.108;18.326;2023-04-03T14:07:23;2.83;;;1.00;;
21266;SDS011;10791;53.108;18.326;2023-04-03T14:12:29;4.17;;;1.00;;
21266;SDS011;10791;53.108;18.326;2023-04-03T14:17:36;1.23;;;0.60;;
21266;SDS011;10791;53.108;18.326;2023-04-03T14:22:40;4.23;;;1.70;;
21266;SDS011;10791;53.108;18.326;2023-04-03T14:27:44;2.40;;;0.80;;
21266;SDS011;10791;53.108;18.326;2023-04-03T14:32:51;2.87;;;0.87;;
21266;SDS011;10791;53.108;18.326;2023-04-03T14:37:55;3.27;;;0.97;;
21266;SDS011;10791;53.108;18.326;2023-04-03T14:42:58;2.67;;;0.90;;
21266;SDS011;10791;53.108;18.326;2023-04-03T14:48:02;2.47;;;1.30;;
21266;SDS011;10791;53.108;18.326;2023-04-03T14:53:06;1.20;;;0.70;;
21266;SDS011;10791;53.108;18.326;2023-04-03T14:58:13;3.73;;;1.13;;
21266;SDS011;10791;53.108;18.326;2023-04-03T15:03:19;2.37;;;1.10;;
21266;SDS011;10791;53.108;18.326;2023-04-03T15:08:24;1.93;;;0.73;;
21266;SDS011;10791;53.108;18.326;2023-04-03T15:13:33;1.50;;;0.73;;
21266;SDS011;10791;53.108;18.326;2023-04-03T15:18:37;2.33;;;0.90;;
21266;SDS011;10791;53.108;18.326;2023-04-03T15:23:40;2.00;;;0.83;;
21266;SDS011;10791;53.108;18.326;2023-04-03T15:28:46;1.93;;;0.73;;
21266;SDS011;10791;53.108;18.326;2023-04-03T15:33:49;3.40;;;1.20;;
21266;SDS011;10791;53.108;18.326;2023-04-03T15:38:53;1.57;;;0.70;;
21266;SDS011;10791;53.108;18.326;2023-04-03T15:43:56;1.03;;;0.57;;
21266;SDS011;10791;53.108;18.326;2023-04-03T15:49:00;3.47;;;1.30;;
21266;SDS011;10791;53.108;18.326;2023-04-03T15:54:04;2.70;;;0.90;;
21266;SDS011;10791;53.108;18.326;2023-04-03T15:59:07;3.03;;;0.70;;
21266;SDS011;10791;53.108;18.326;2023-04-03T16:04:11;1.73;;;0.87;;
21266;SDS011;10791;53.108;18.326;2023-04-03T16:09:16;2.10;;;0.97;;
21266;SDS011;10791;53.108;18.326;2023-04-03T16:14:20;3.13;;;1.03;;
21266;SDS011;10791;53.108;18.326;2023-04-03T16:19:24;5.03;;;1.27;;
21266;SDS011;10791;53.108;18.326;2023-04-03T16:24:27;1.40;;;0.90;;
21266;SDS011;10791;53.108;18.326;2023-04-03T16:29:32;6.17;;;1.30;;
21266;SDS011;10791;53.108;18.326;2023-04-03T16:34:36;1.93;;;1.00;;
21266;SDS011;10791;53.108;18.326;2023-04-03T16:39:44;3.00;;;1.03;;
21266;SDS011;10791;53.108;18.326;2023-04-03T16:44:50;4.90;;;1.77;;
21266;SDS011;10791;53.108;18.326;2023-04-03T16:49:55;3.97;;;2.13;;
21266;SDS011;10791;53.108;18.326;2023-04-03T16:55:00;4.33;;;1.70;;
21266;SDS011;10791;53.108;18.326;2023-04-03T17:00:06;4.27;;;1.70;;
21266;SDS011;10791;53.108;18.326;2023-04-03T17:05:11;2.87;;;1.30;;
21266;SDS011;10791;53.108;18.326;2023-04-03T17:10:14;2.90;;;1.33;;
21266;SDS011;10791;53.108;18.326;2023-04-03T17:15:18;3.00;;;1.40;;
21266;SDS011;10791;53.108;18.326;2023-04-03T17:20:22;4.40;;;1.57;;
21266;SDS011;10791;53.108;18.326;2023-04-03T17:25:31;2.37;;;1.37;;
21266;SDS011;10791;53.108;18.326;2023-04-03T17:30:36;9.40;;;3.60;;
21266;SDS011;10791;53.108;18.326;2023-04-03T17:35:40;10.87;;;2.33;;
21266;SDS011;10791;53.108;18.326;2023-04-03T17:40:45;3.23;;;1.53;;
21266;SDS011;10791;53.108;18.326;2023-04-03T17:45:49;6.90;;;2.13;;
21266;SDS011;10791;53.108;18.326;2023-04-03T17:50:54;3.90;;;1.70;;
21266;SDS011;10791;53.108;18.326;2023-04-03T18:01:37;4.17;;;1.80;;
21266;SDS011;10791;53.108;18.326;2023-04-03T18:06:45;4.43;;;1.60;;
21266;SDS011;10791;53.108;18.326;2023-04-03T18:11:52;4.90;;;1.37;;
21266;SDS011;10791;53.108;18.326;2023-04-03T18:16:57;3.70;;;1.70;;
21266;SDS011;10791;53.108;18.326;2023-04-03T18:22:10;3.53;;;1.47;;
21266;SDS011;10791;53.108;18.326;2023-04-03T18:27:20;5.47;;;1.90;;
21266;SDS011;10791;53.108;18.326;2023-04-03T18:32:29;3.93;;;1.77;;
21266;SDS011;10791;53.108;18.326;2023-04-03T18:37:34;3.67;;;1.70;;
21266;SDS011;10791;53.108;18.326;2023-04-03T18:42:38;4.67;;;1.60;;
21266;SDS011;10791;53.108;18.326;2023-04-03T18:47:45;4.67;;;1.77;;
21266;SDS011;10791;53.108;18.326;2023-04-03T18:52:50;5.30;;;2.27;;
21266;SDS011;10791;53.108;18.326;2023-04-03T18:57:56;6.33;;;1.90;;
21266;SDS011;10791;53.108;18.326;2023-04-03T19:03:02;7.60;;;2.53;;
21266;SDS011;10791;53.108;18.326;2023-04-03T19:08:07;6.73;;;2.17;;
21266;SDS011;10791;53.108;18.326;2023-04-03T19:13:12;2.97;;;1.63;;
21266;SDS011;10791;53.108;18.326;2023-04-03T19:18:17;6.57;;;1.90;;
21266;SDS011;10791;53.108;18.326;2023-04-03T19:23:22;5.47;;;2.00;;
21266;SDS011;10791;53.108;18.326;2023-04-03T19:28:28;3.43;;;1.70;;
21266;SDS011;10791;53.108;18.326;2023-04-03T19:33:33;5.53;;;2.00;;
21266;SDS011;10791;53.108;18.326;2023-04-03T19:38:41;5.77;;;2.43;;
21266;SDS011;10791;53.108;18.326;2023-04-03T19:43:49;5.30;;;2.13;;
21266;SDS011;10791;53.108;18.326;2023-04-03T19:48:58;4.93;;;2.10;;
21266;SDS011;10791;53.108;18.326;2023-04-03T19:54:05;5.43;;;2.53;;
21266;SDS011;10791;53.108;18.326;2023-04-03T19:59:13;5.67;;;2.07;;
21266;SDS011;10791;53.108;18.326;2023-04-03T20:04:19;6.30;;;2.00;;
21266;SDS011;10791;53.108;18.326;2023-04-03T20:09:26;3.50;;;1.53;;
21266;SDS011;10791;53.108;18.326;2023-04-03T20:14:31;5.57;;;1.83;;
21266;SDS011;10791;53.108;18.326;2023-04-03T20:19:36;4.43;;;1.90;;
21266;SDS011;10791;53.108;18.326;2023-04-03T20:24:40;3.70;;;1.80;;
21266;SDS011;10791;53.108;18.326;2023-04-03T20:29:44;5.30;;;1.73;;
21266;SDS011;10791;53.108;18.326;2023-04-03T20:34:49;4.23;;;1.70;;
21266;SDS011;10791;53.108;18.326;2023-04-03T20:40:08;4.47;;;1.60;;
21266;SDS011;10791;53.108;18.326;2023-04-03T20:45:13;3.87;;;2.43;;
21266;SDS011;10791;53.108;18.326;2023-04-03T20:50:17;4.73;;;1.90;;
21266;SDS011;10791;53.108;18.326;2023-04-03T20:55:23;3.37;;;1.80;;
21266;SDS011;10791;53.108;18.326;2023-04-03T21:00:27;3.47;;;1.30;;
21266;SDS011;10791;53.108;18.326;2023-04-03T21:05:31;2.37;;;1.43;;
21266;SDS011;10791;53.108;18.326;2023-04-03T21:21:25;3.67;;;1.83;;
21266;SDS011;10791;53.108;18.326;2023-04-03T21:26:29;4.53;;;1.53;;
21266;SDS011;10791;53.108;18.326;2023-04-03T21:31:46;7.43;;;1.90;;
21266;SDS011;10791;53.108;18.326;2023-04-03T21:37:05;4.27;;;1.93;;
21266;SDS011;10791;53.108;18.326;2023-04-03T21:42:10;6.57;;;2.07;;
21266;SDS011;10791;53.108;18.326;2023-04-03T21:47:13;4.93;;;1.70;;
21266;SDS011;10791;53.108;18.326;2023-04-03T21:52:17;4.33;;;2.13;;
21266;SDS011;10791;53.108;18.326;2023-04-03T21:57:20;6.27;;;2.50;;
21266;SDS011;10791;53.108;18.326;2023-04-03T22:02:25;4.67;;;1.97;;
21266;SDS011;10791;53.108;18.326;2023-04-03T22:07:28;6.13;;;1.90;;
21266;SDS011;10791;53.108;18.326;2023-04-03T22:12:32;3.63;;;1.93;;
21266;SDS011;10791;53.108;18.326;2023-04-03T22:17:35;5.97;;;2.37;;
21266;SDS011;10791;53.108;18.326;2023-04-03T22:22:39;7.37;;;2.27;;
21266;SDS011;10791;53.108;18.326;2023-04-03T22:27:42;5.60;;;2.10;;
21266;SDS011;10791;53.108;18.326;2023-04-03T22:32:46;4.40;;;1.80;;
21266;SDS011;10791;53.108;18.326;2023-04-03T22:37:49;7.67;;;2.07;;
21266;SDS011;10791;53.108;18.326;2023-04-03T22:42:53;3.43;;;1.87;;
21266;SDS011;10791;53.108;18.326;2023-04-03T22:47:56;4.97;;;2.10;;
21266;SDS011;10791;53.108;18.326;2023-04-03T22:53:00;5.27;;;2.10;;
21266;SDS011;10791;53.108;18.326;2023-04-03T22:58:04;4.90;;;2.60;;
21266;SDS011;10791;53.108;18.326;2023-04-03T23:03:07;4.63;;;2.20;;
21266;SDS011;10791;53.108;18.326;2023-04-03T23:08:12;4.83;;;2.10;;
21266;SDS011;10791;53.108;18.326;2023-04-03T23:13:16;6.10;;;2.07;;
21266;SDS011;10791;53.108;18.326;2023-04-03T23:18:19;5.07;;;2.03;;
21266;SDS011;10791;53.108;18.326;2023-04-03T23:23:23;4.10;;;2.40;;
21266;SDS011;10791;53.108;18.326;2023-04-03T23:28:27;5.23;;;2.10;;
21266;SDS011;10791;53.108;18.326;2023-04-03T23:33:31;4.77;;;2.17;;
21266;SDS011;10791;53.108;18.326;2023-04-03T23:38:35;7.03;;;2.20;;
21266;SDS011;10791;53.108;18.326;2023-04-03T23:43:39;6.60;;;2.30;;
21266;SDS011;10791;53.108;18.326;2023-04-03T23:48:44;6.37;;;2.23;;
21266;SDS011;10791;53.108;18.326;2023-04-03T23:53:47;4.23;;;2.20;;
21266;SDS011;10791;53.108;18.326;2023-04-03T23:58:51;10.03;;;2.77;;
